sensor_id;sensor_type;location;lat;lon;timestamp;pressure;altitude;pressure_sealevel;temperature;humidity
14120;BME280;7138;49.246;9.100;2023-09-18T00:00:10;98212.78;;;23.28;55.54
14120;BME280;7138;49.246;9.100;2023-09-18T00:02:38;98209.19;;;23.28;55.37
14120;BME280;7138;49.246;9.100;2023-09-18T00:05:04;98211.16;;;23.27;55.62
14120;BME280;7138;49.246;9.100;2023-09-18T00:07:32;98205.81;;;23.22;55.86
14120;BME280;7138;49.246;9.100;2023-09-18T00:09:57;98199.75;;;23.20;55.92
14120;BME280;7138;49.246;9.100;2023-09-18T00:12:23;98198.78;;;23.16;56.09
14120;BME280;7138;49.246;9.100;2023-09-18T00:14:49;98194.72;;;23.14;56.13
14120;BME280;7138;49.246;9.100;2023-09-18T00:17:16;98196.25;;;23.11;56.25
14120;BME280;7138;49.246;9.100;2023-09-18T00:19:42;98199.72;;;23.08;56.34
14120;BME280;7138;49.246;9.100;2023-09-18T00:22:08;98200.41;;;23.05;56.46
14120;BME280;7138;49.246;9.100;2023-09-18T00:24:35;98202.84;;;23.06;56.70
14120;BME280;7138;49.246;9.100;2023-09-18T00:27:01;98205.16;;;23.04;56.63
14120;BME280;7138;49.246;9.100;2023-09-18T00:29:27;98201.78;;;22.99;56.74
14120;BME280;7138;49.246;9.100;2023-09-18T00:31:53;98191.63;;;22.94;56.93
14120;BME280;7138;49.246;9.100;2023-09-18T00:34:18;98183.59;;;22.93;57.10
14120;BME280;7138;49.246;9.100;2023-09-18T00:36:44;98175.13;;;22.89;57.01
14120;BME280;7138;49.246;9.100;2023-09-18T00:39:10;98170.03;;;22.83;57.27
14120;BME280;7138;49.246;9.100;2023-09-18T00:41:37;98164.00;;;22.80;57.53
14120;BME280;7138;49.246;9.100;2023-09-18T00:44:04;98163.53;;;22.78;57.53
14120;BME280;7138;49.246;9.100;2023-09-18T00:46:32;98165.16;;;22.79;57.51
14120;BME280;7138;49.246;9.100;2023-09-18T00:48:58;98151.91;;;22.76;57.66
14120;BME280;7138;49.246;9.100;2023-09-18T00:51:24;98153.03;;;22.75;57.73
14120;BME280;7138;49.246;9.100;2023-09-18T00:53:51;98150.25;;;22.75;57.62
14120;BME280;7138;49.246;9.100;2023-09-18T00:56:18;98143.03;;;22.74;57.52
14120;BME280;7138;49.246;9.100;2023-09-18T00:58:47;98135.47;;;22.75;57.83
14120;BME280;7138;49.246;9.100;2023-09-18T01:01:18;98123.50;;;22.74;57.94
14120;BME280;7138;49.246;9.100;2023-09-18T01:03:49;98123.03;;;22.72;57.59
14120;BME280;7138;49.246;9.100;2023-09-18T01:06:16;98137.31;;;22.71;57.82
14120;BME280;7138;49.246;9.100;2023-09-18T01:08:41;98128.84;;;22.67;57.79
14120;BME280;7138;49.246;9.100;2023-09-18T01:11:26;98128.03;;;22.67;58.20
14120;BME280;7138;49.246;9.100;2023-09-18T01:14:15;98122.78;;;22.65;58.14
14120;BME280;7138;49.246;9.100;2023-09-18T01:16:51;98130.19;;;22.61;58.36
14120;BME280;7138;49.246;9.100;2023-09-18T01:19:36;98115.78;;;22.59;58.57
14120;BME280;7138;49.246;9.100;2023-09-18T01:22:05;98111.69;;;22.57;58.05
14120;BME280;7138;49.246;9.100;2023-09-18T01:24:34;98125.66;;;22.57;58.51
14120;BME280;7138;49.246;9.100;2023-09-18T01:27:00;98118.75;;;22.54;58.15
14120;BME280;7138;49.246;9.100;2023-09-18T01:29:26;98126.00;;;22.55;58.27
14120;BME280;7138;49.246;9.100;2023-09-18T01:31:53;98131.09;;;22.53;58.49
14120;BME280;7138;49.246;9.100;2023-09-18T01:34:20;98120.63;;;22.50;58.87
14120;BME280;7138;49.246;9.100;2023-09-18T01:36:47;98112.94;;;22.47;58.89
14120;BME280;7138;49.246;9.100;2023-09-18T01:39:16;98124.91;;;22.47;59.39
14120;BME280;7138;49.246;9.100;2023-09-18T01:41:45;98123.63;;;22.45;59.50
14120;BME280;7138;49.246;9.100;2023-09-18T01:44:11;98108.38;;;22.42;59.19
14120;BME280;7138;49.246;9.100;2023-09-18T01:46:38;98114.56;;;22.48;59.07
14120;BME280;7138;49.246;9.100;2023-09-18T01:49:05;98107.03;;;22.48;59.22
14120;BME280;7138;49.246;9.100;2023-09-18T01:51:31;98111.91;;;22.51;59.15
14120;BME280;7138;49.246;9.100;2023-09-18T01:53:57;98122.72;;;22.53;59.29
14120;BME280;7138;49.246;9.100;2023-09-18T01:56:24;98132.41;;;22.56;59.38
14120;BME280;7138;49.246;9.100;2023-09-18T01:58:51;98116.81;;;22.55;61.42
14120;BME280;7138;49.246;9.100;2023-09-18T02:01:17;98113.06;;;22.50;61.85
14120;BME280;7138;49.246;9.100;2023-09-18T02:03:43;98108.06;;;22.44;62.32
14120;BME280;7138;49.246;9.100;2023-09-18T02:06:09;98113.03;;;22.38;62.62
14120;BME280;7138;49.246;9.100;2023-09-18T02:08:34;98125.22;;;22.34;63.96
14120;BME280;7138;49.246;9.100;2023-09-18T02:11:01;98145.41;;;22.31;64.54
14120;BME280;7138;49.246;9.100;2023-09-18T02:13:28;98175.03;;;22.23;64.53
14120;BME280;7138;49.246;9.100;2023-09-18T02:15:55;98197.41;;;22.06;65.02
14120;BME280;7138;49.246;9.100;2023-09-18T02:18:22;98228.47;;;21.95;65.60
14120;BME280;7138;49.246;9.100;2023-09-18T02:20:47;98236.19;;;21.90;66.01
14120;BME280;7138;49.246;9.100;2023-09-18T02:23:15;98201.31;;;21.84;66.71
14120;BME280;7138;49.246;9.100;2023-09-18T02:25:41;98191.88;;;21.67;67.52
14120;BME280;7138;49.246;9.100;2023-09-18T02:28:07;98196.03;;;21.61;68.03
14120;BME280;7138;49.246;9.100;2023-09-18T02:30:33;98187.00;;;21.56;68.30
14120;BME280;7138;49.246;9.100;2023-09-18T02:33:00;98164.25;;;21.54;68.55
14120;BME280;7138;49.246;9.100;2023-09-18T02:35:28;98148.88;;;21.48;70.23
14120;BME280;7138;49.246;9.100;2023-09-18T02:37:54;98145.47;;;21.42;67.94
14120;BME280;7138;49.246;9.100;2023-09-18T02:40:20;98172.50;;;21.42;68.45
14120;BME280;7138;49.246;9.100;2023-09-18T02:42:46;98202.84;;;21.34;69.43
14120;BME280;7138;49.246;9.100;2023-09-18T02:45:12;98185.03;;;21.27;69.25
14120;BME280;7138;49.246;9.100;2023-09-18T02:47:37;98248.06;;;21.23;69.24
14120;BME280;7138;49.246;9.100;2023-09-18T02:50:08;98229.56;;;21.18;70.47
14120;BME280;7138;49.246;9.100;2023-09-18T02:52:36;98223.81;;;21.15;70.28
14120;BME280;7138;49.246;9.100;2023-09-18T02:55:03;98198.28;;;21.13;69.75
14120;BME280;7138;49.246;9.100;2023-09-18T02:57:29;98195.97;;;21.15;69.95
14120;BME280;7138;49.246;9.100;2023-09-18T02:59:54;98185.34;;;21.17;70.15
14120;BME280;7138;49.246;9.100;2023-09-18T03:02:20;98182.56;;;21.17;70.27
14120;BME280;7138;49.246;9.100;2023-09-18T03:04:46;98182.72;;;21.12;71.40
14120;BME280;7138;49.246;9.100;2023-09-18T03:07:14;98174.41;;;21.03;71.24
14120;BME280;7138;49.246;9.100;2023-09-18T03:09:39;98163.75;;;21.05;70.86
14120;BME280;7138;49.246;9.100;2023-09-18T03:12:06;98173.09;;;21.00;70.95
14120;BME280;7138;49.246;9.100;2023-09-18T03:14:32;98152.81;;;21.00;71.03
14120;BME280;7138;49.246;9.100;2023-09-18T03:16:57;98153.28;;;21.02;71.03
14120;BME280;7138;49.246;9.100;2023-09-18T03:19:23;98153.97;;;20.99;70.93
14120;BME280;7138;49.246;9.100;2023-09-18T03:21:50;98137.75;;;20.92;71.09
14120;BME280;7138;49.246;9.100;2023-09-18T03:24:17;98138.09;;;20.91;71.41
14120;BME280;7138;49.246;9.100;2023-09-18T03:26:43;98125.31;;;20.90;71.29
14120;BME280;7138;49.246;9.100;2023-09-18T03:29:09;98129.25;;;20.89;71.21
14120;BME280;7138;49.246;9.100;2023-09-18T03:31:35;98126.81;;;20.87;71.27
14120;BME280;7138;49.246;9.100;2023-09-18T03:34:00;98123.03;;;20.83;71.50
14120;BME280;7138;49.246;9.100;2023-09-18T03:36:26;98127.63;;;20.88;71.66
14120;BME280;7138;49.246;9.100;2023-09-18T03:38:52;98126.81;;;20.87;71.12
14120;BME280;7138;49.246;9.100;2023-09-18T03:41:19;98119.63;;;20.86;71.38
14120;BME280;7138;49.246;9.100;2023-09-18T03:43:45;98133.53;;;20.86;71.31
14120;BME280;7138;49.246;9.100;2023-09-18T03:46:11;98145.16;;;20.88;71.57
14120;BME280;7138;49.246;9.100;2023-09-18T03:48:37;98161.16;;;20.91;71.85
14120;BME280;7138;49.246;9.100;2023-09-18T03:51:03;98169.19;;;20.93;71.69
14120;BME280;7138;49.246;9.100;2023-09-18T03:53:30;98186.41;;;20.95;71.63
14120;BME280;7138;49.246;9.100;2023-09-18T03:55:55;98198.16;;;20.92;71.60
14120;BME280;7138;49.246;9.100;2023-09-18T03:58:23;98207.34;;;20.92;71.84
14120;BME280;7138;49.246;9.100;2023-09-18T04:00:48;98216.03;;;20.91;71.65
14120;BME280;7138;49.246;9.100;2023-09-18T04:03:15;98214.88;;;20.92;71.35
14120;BME280;7138;49.246;9.100;2023-09-18T04:05:40;98222.88;;;20.93;71.69
14120;BME280;7138;49.246;9.100;2023-09-18T04:08:06;98223.41;;;20.95;71.87
14120;BME280;7138;49.246;9.100;2023-09-18T04:10:32;98229.09;;;20.99;71.77
14120;BME280;7138;49.246;9.100;2023-09-18T04:12:58;98217.97;;;20.99;71.67
14120;BME280;7138;49.246;9.100;2023-09-18T04:15:25;98229.44;;;20.97;72.09
14120;BME280;7138;49.246;9.100;2023-09-18T04:17:53;98243.19;;;20.94;71.97
14120;BME280;7138;49.246;9.100;2023-09-18T04:20:19;98239.09;;;20.91;71.97
14120;BME280;7138;49.246;9.100;2023-09-18T04:22:47;98245.34;;;20.88;72.40
14120;BME280;7138;49.246;9.100;2023-09-18T04:25:16;98247.97;;;20.76;72.32
14120;BME280;7138;49.246;9.100;2023-09-18T04:27:42;98277.91;;;20.62;72.72
14120;BME280;7138;49.246;9.100;2023-09-18T04:30:08;98267.28;;;20.55;73.37
14120;BME280;7138;49.246;9.100;2023-09-18T04:32:36;98272.16;;;20.49;73.24
14120;BME280;7138;49.246;9.100;2023-09-18T04:35:03;98272.94;;;20.41;73.69
14120;BME280;7138;49.246;9.100;2023-09-18T04:37:31;98285.88;;;20.37;74.44
14120;BME280;7138;49.246;9.100;2023-09-18T04:39:57;98274.72;;;20.29;75.61
14120;BME280;7138;49.246;9.100;2023-09-18T04:42:23;98244.94;;;20.29;74.87
14120;BME280;7138;49.246;9.100;2023-09-18T04:44:49;98201.28;;;20.30;74.58
14120;BME280;7138;49.246;9.100;2023-09-18T04:47:15;98194.09;;;20.37;74.51
14120;BME280;7138;49.246;9.100;2023-09-18T04:49:43;98162.72;;;20.45;74.29
14120;BME280;7138;49.246;9.100;2023-09-18T04:52:10;98139.81;;;20.48;73.58
14120;BME280;7138;49.246;9.100;2023-09-18T04:54:36;98106.09;;;20.50;73.70
14120;BME280;7138;49.246;9.100;2023-09-18T04:57:03;98098.75;;;20.54;73.94
14120;BME280;7138;49.246;9.100;2023-09-18T04:59:30;98085.31;;;20.56;73.49
14120;BME280;7138;49.246;9.100;2023-09-18T05:01:55;98085.13;;;20.61;73.60
14120;BME280;7138;49.246;9.100;2023-09-18T05:04:21;98048.00;;;20.66;73.29
14120;BME280;7138;49.246;9.100;2023-09-18T05:06:48;98069.22;;;20.70;72.94
14120;BME280;7138;49.246;9.100;2023-09-18T05:09:14;98109.00;;;20.71;73.10
14120;BME280;7138;49.246;9.100;2023-09-18T05:11:40;98089.88;;;20.69;73.11
14120;BME280;7138;49.246;9.100;2023-09-18T05:14:07;98059.59;;;20.68;73.54
14120;BME280;7138;49.246;9.100;2023-09-18T05:16:33;98050.78;;;20.66;73.08
14120;BME280;7138;49.246;9.100;2023-09-18T05:18:59;98063.66;;;20.70;72.95
14120;BME280;7138;49.246;9.100;2023-09-18T05:21:25;98085.59;;;20.72;73.01
14120;BME280;7138;49.246;9.100;2023-09-18T05:23:53;98103.28;;;20.76;73.26
14120;BME280;7138;49.246;9.100;2023-09-18T05:26:19;98067.75;;;20.73;73.57
14120;BME280;7138;49.246;9.100;2023-09-18T05:28:45;98061.38;;;20.72;73.53
14120;BME280;7138;49.246;9.100;2023-09-18T05:31:13;98089.38;;;20.76;73.23
14120;BME280;7138;49.246;9.100;2023-09-18T05:33:38;98092.16;;;20.76;73.32
14120;BME280;7138;49.246;9.100;2023-09-18T05:36:04;98095.06;;;20.79;73.35
14120;BME280;7138;49.246;9.100;2023-09-18T05:38:30;98102.44;;;20.84;73.37
14120;BME280;7138;49.246;9.100;2023-09-18T05:40:57;98094.22;;;20.88;73.62
14120;BME280;7138;49.246;9.100;2023-09-18T05:43:23;98097.97;;;20.92;73.26
14120;BME280;7138;49.246;9.100;2023-09-18T05:45:49;98112.38;;;20.94;73.24
14120;BME280;7138;49.246;9.100;2023-09-18T05:48:15;98107.63;;;20.94;73.14
14120;BME280;7138;49.246;9.100;2023-09-18T05:50:41;98128.25;;;20.93;73.24
14120;BME280;7138;49.246;9.100;2023-09-18T05:53:07;98129.56;;;20.96;73.40
14120;BME280;7138;49.246;9.100;2023-09-18T05:55:34;98120.56;;;20.99;73.26
14120;BME280;7138;49.246;9.100;2023-09-18T05:58:02;98123.81;;;21.01;73.35
14120;BME280;7138;49.246;9.100;2023-09-18T06:00:30;98121.50;;;21.03;72.98
14120;BME280;7138;49.246;9.100;2023-09-18T06:02:59;98127.38;;;21.10;73.19
14120;BME280;7138;49.246;9.100;2023-09-18T06:05:25;98123.13;;;21.13;72.82
14120;BME280;7138;49.246;9.100;2023-09-18T06:07:51;98128.00;;;21.16;72.92
14120;BME280;7138;49.246;9.100;2023-09-18T06:10:17;98123.75;;;21.18;73.14
14120;BME280;7138;49.246;9.100;2023-09-18T06:12:44;98128.19;;;21.19;73.18
14120;BME280;7138;49.246;9.100;2023-09-18T06:15:12;98128.78;;;21.25;73.15
14120;BME280;7138;49.246;9.100;2023-09-18T06:17:39;98119.31;;;21.26;73.33
14120;BME280;7138;49.246;9.100;2023-09-18T06:20:07;98117.50;;;21.30;73.28
14120;BME280;7138;49.246;9.100;2023-09-18T06:22:36;98123.56;;;21.32;73.79
14120;BME280;7138;49.246;9.100;2023-09-18T06:25:04;98128.44;;;21.35;74.11
14120;BME280;7138;49.246;9.100;2023-09-18T06:27:30;98135.81;;;21.40;73.70
14120;BME280;7138;49.246;9.100;2023-09-18T06:29:58;98142.47;;;21.47;73.62
14120;BME280;7138;49.246;9.100;2023-09-18T06:32:25;98152.28;;;21.53;73.62
14120;BME280;7138;49.246;9.100;2023-09-18T06:34:51;98155.22;;;21.57;73.16
14120;BME280;7138;49.246;9.100;2023-09-18T06:37:17;98163.75;;;21.60;73.09
14120;BME280;7138;49.246;9.100;2023-09-18T06:39:44;98162.72;;;21.65;72.88
14120;BME280;7138;49.246;9.100;2023-09-18T06:42:10;98150.88;;;21.68;72.56
14120;BME280;7138;49.246;9.100;2023-09-18T06:44:35;98168.94;;;21.71;72.49
14120;BME280;7138;49.246;9.100;2023-09-18T06:47:01;98177.75;;;21.73;72.35
14120;BME280;7138;49.246;9.100;2023-09-18T06:49:29;98177.09;;;21.76;72.32
14120;BME280;7138;49.246;9.100;2023-09-18T06:51:56;98185.91;;;21.78;72.19
14120;BME280;7138;49.246;9.100;2023-09-18T06:54:22;98181.66;;;21.80;72.33
14120;BME280;7138;49.246;9.100;2023-09-18T06:56:48;98188.53;;;21.83;72.26
14120;BME280;7138;49.246;9.100;2023-09-18T06:59:14;98185.06;;;21.86;71.92
14120;BME280;7138;49.246;9.100;2023-09-18T07:01:40;98177.16;;;21.88;72.21
14120;BME280;7138;49.246;9.100;2023-09-18T07:04:06;98173.72;;;21.91;72.25
14120;BME280;7138;49.246;9.100;2023-09-18T07:06:34;98182.09;;;21.91;72.21
14120;BME280;7138;49.246;9.100;2023-09-18T07:09:00;98180.59;;;21.93;71.99
14120;BME280;7138;49.246;9.100;2023-09-18T07:11:26;98190.13;;;21.92;71.86
14120;BME280;7138;49.246;9.100;2023-09-18T07:13:52;98190.59;;;21.94;71.90
14120;BME280;7138;49.246;9.100;2023-09-18T07:16:18;98197.13;;;21.99;71.79
14120;BME280;7138;49.246;9.100;2023-09-18T07:18:43;98206.28;;;21.99;72.14
14120;BME280;7138;49.246;9.100;2023-09-18T07:21:09;98212.38;;;22.01;72.24
14120;BME280;7138;49.246;9.100;2023-09-18T07:23:39;98207.28;;;22.03;72.19
14120;BME280;7138;49.246;9.100;2023-09-18T07:26:05;98211.22;;;22.02;71.55
14120;BME280;7138;49.246;9.100;2023-09-18T07:28:32;98222.50;;;22.06;71.62
14120;BME280;7138;49.246;9.100;2023-09-18T07:31:05;98231.38;;;22.08;72.41
14120;BME280;7138;49.246;9.100;2023-09-18T07:33:31;98223.47;;;22.10;71.92
14120;BME280;7138;49.246;9.100;2023-09-18T07:35:56;98243.81;;;22.10;71.96
14120;BME280;7138;49.246;9.100;2023-09-18T07:38:23;98253.81;;;22.11;72.32
14120;BME280;7138;49.246;9.100;2023-09-18T07:40:51;98257.44;;;22.12;72.37
14120;BME280;7138;49.246;9.100;2023-09-18T07:43:17;98266.13;;;22.10;72.09
14120;BME280;7138;49.246;9.100;2023-09-18T07:45:43;98275.66;;;22.09;72.01
14120;BME280;7138;49.246;9.100;2023-09-18T07:48:09;98275.81;;;22.04;71.92
14120;BME280;7138;49.246;9.100;2023-09-18T07:50:35;98286.31;;;21.99;72.26
14120;BME280;7138;49.246;9.100;2023-09-18T07:53:01;98282.13;;;21.92;72.30
14120;BME280;7138;49.246;9.100;2023-09-18T07:55:27;98278.16;;;21.93;72.53
14120;BME280;7138;49.246;9.100;2023-09-18T07:57:54;98283.06;;;21.97;72.43
14120;BME280;7138;49.246;9.100;2023-09-18T08:00:20;98274.91;;;21.91;71.76
14120;BME280;7138;49.246;9.100;2023-09-18T08:02:48;98276.38;;;21.89;72.01
14120;BME280;7138;49.246;9.100;2023-09-18T08:05:16;98285.53;;;21.89;72.18
14120;BME280;7138;49.246;9.100;2023-09-18T08:07:41;98281.63;;;21.90;71.66
14120;BME280;7138;49.246;9.100;2023-09-18T08:10:08;98276.72;;;21.87;71.96
14120;BME280;7138;49.246;9.100;2023-09-18T08:12:35;98273.78;;;21.84;71.83
14120;BME280;7138;49.246;9.100;2023-09-18T08:15:03;98266.75;;;21.78;71.74
14120;BME280;7138;49.246;9.100;2023-09-18T08:17:31;98272.31;;;21.78;71.74
14120;BME280;7138;49.246;9.100;2023-09-18T08:19:56;98259.06;;;21.75;71.68
14120;BME280;7138;49.246;9.100;2023-09-18T08:22:24;98251.84;;;21.74;71.68
14120;BME280;7138;49.246;9.100;2023-09-18T08:24:50;98242.00;;;21.76;71.46
14120;BME280;7138;49.246;9.100;2023-09-18T08:27:19;98233.16;;;21.74;71.01
14120;BME280;7138;49.246;9.100;2023-09-18T08:29:45;98223.16;;;21.73;71.30
14120;BME280;7138;49.246;9.100;2023-09-18T08:32:13;98239.56;;;21.75;71.88
14120;BME280;7138;49.246;9.100;2023-09-18T08:34:39;98237.72;;;21.79;71.74
14120;BME280;7138;49.246;9.100;2023-09-18T08:37:05;98261.00;;;21.83;71.99
14120;BME280;7138;49.246;9.100;2023-09-18T08:39:31;98267.53;;;21.87;72.33
14120;BME280;7138;49.246;9.100;2023-09-18T08:42:02;98266.53;;;21.91;72.80
14120;BME280;7138;49.246;9.100;2023-09-18T08:44:30;98270.63;;;21.94;71.62
14120;BME280;7138;49.246;9.100;2023-09-18T08:46:57;98271.91;;;21.97;71.57
14120;BME280;7138;49.246;9.100;2023-09-18T08:49:26;98270.91;;;22.01;71.75
14120;BME280;7138;49.246;9.100;2023-09-18T08:51:55;98257.47;;;22.03;71.80
14120;BME280;7138;49.246;9.100;2023-09-18T08:54:21;98257.28;;;22.08;71.60
14120;BME280;7138;49.246;9.100;2023-09-18T08:56:49;98250.88;;;22.08;70.98
14120;BME280;7138;49.246;9.100;2023-09-18T08:59:16;98245.66;;;22.06;71.43
14120;BME280;7138;49.246;9.100;2023-09-18T09:01:42;98251.72;;;22.08;71.05
14120;BME280;7138;49.246;9.100;2023-09-18T09:04:08;98251.38;;;22.10;70.86
14120;BME280;7138;49.246;9.100;2023-09-18T09:06:36;98247.41;;;22.11;71.30
14120;BME280;7138;49.246;9.100;2023-09-18T09:09:03;98267.91;;;22.15;71.28
14120;BME280;7138;49.246;9.100;2023-09-18T09:11:29;98275.94;;;22.16;71.12
14120;BME280;7138;49.246;9.100;2023-09-18T09:14:10;98279.06;;;22.15;71.61
14120;BME280;7138;49.246;9.100;2023-09-18T09:16:39;98290.56;;;22.13;71.74
14120;BME280;7138;49.246;9.100;2023-09-18T09:19:06;98305.16;;;22.10;71.33
14120;BME280;7138;49.246;9.100;2023-09-18T09:21:41;98309.09;;;22.09;71.36
14120;BME280;7138;49.246;9.100;2023-09-18T09:24:09;98312.88;;;22.05;71.51
14120;BME280;7138;49.246;9.100;2023-09-18T09:26:40;98309.63;;;22.03;71.70
14120;BME280;7138;49.246;9.100;2023-09-18T09:29:16;98314.38;;;22.02;72.26
14120;BME280;7138;49.246;9.100;2023-09-18T09:31:44;98313.56;;;22.02;71.83
14120;BME280;7138;49.246;9.100;2023-09-18T09:34:11;98320.31;;;21.92;71.65
14120;BME280;7138;49.246;9.100;2023-09-18T09:36:52;98308.34;;;21.91;72.63
14120;BME280;7138;49.246;9.100;2023-09-18T09:39:19;98316.72;;;21.91;71.89
14120;BME280;7138;49.246;9.100;2023-09-18T09:41:48;98323.44;;;21.90;72.03
14120;BME280;7138;49.246;9.100;2023-09-18T09:44:15;98318.69;;;21.91;72.07
14120;BME280;7138;49.246;9.100;2023-09-18T09:46:46;98314.56;;;21.88;73.07
14120;BME280;7138;49.246;9.100;2023-09-18T09:49:12;98323.75;;;21.89;72.39
14120;BME280;7138;49.246;9.100;2023-09-18T09:51:39;98319.81;;;21.90;72.45
14120;BME280;7138;49.246;9.100;2023-09-18T09:54:07;98319.81;;;21.90;72.66
14120;BME280;7138;49.246;9.100;2023-09-18T09:56:45;98326.72;;;21.92;73.23
14120;BME280;7138;49.246;9.100;2023-09-18T09:59:13;98316.84;;;21.95;73.05
14120;BME280;7138;49.246;9.100;2023-09-18T10:01:41;98310.94;;;21.97;72.76
14120;BME280;7138;49.246;9.100;2023-09-18T10:04:12;98314.88;;;21.95;72.60
14120;BME280;7138;49.246;9.100;2023-09-18T10:06:42;98302.25;;;21.98;72.81
14120;BME280;7138;49.246;9.100;2023-09-18T10:09:10;98302.72;;;22.00;71.88
14120;BME280;7138;49.246;9.100;2023-09-18T10:11:42;98293.22;;;22.01;72.30
14120;BME280;7138;49.246;9.100;2023-09-18T10:14:16;98289.41;;;22.06;72.51
14120;BME280;7138;49.246;9.100;2023-09-18T10:16:49;98285.16;;;22.08;71.99
14120;BME280;7138;49.246;9.100;2023-09-18T10:19:26;98279.13;;;22.06;72.16
14120;BME280;7138;49.246;9.100;2023-09-18T10:22:01;98277.78;;;22.04;72.34
14120;BME280;7138;49.246;9.100;2023-09-18T10:24:34;98266.47;;;22.09;72.56
14120;BME280;7138;49.246;9.100;2023-09-18T10:27:04;98266.75;;;22.16;72.56
14120;BME280;7138;49.246;9.100;2023-09-18T10:29:35;98265.41;;;22.22;72.19
14120;BME280;7138;49.246;9.100;2023-09-18T10:32:03;98278.69;;;22.25;71.84
14120;BME280;7138;49.246;9.100;2023-09-18T10:34:31;98271.13;;;22.26;71.82
14120;BME280;7138;49.246;9.100;2023-09-18T10:37:03;98282.44;;;22.29;72.07
14120;BME280;7138;49.246;9.100;2023-09-18T10:39:36;98290.78;;;22.29;72.15
14120;BME280;7138;49.246;9.100;2023-09-18T10:42:03;98298.47;;;22.32;71.61
14120;BME280;7138;49.246;9.100;2023-09-18T10:44:30;98292.09;;;22.32;71.38
14120;BME280;7138;49.246;9.100;2023-09-18T10:47:02;98302.59;;;22.35;71.89
14120;BME280;7138;49.246;9.100;2023-09-18T10:49:31;98306.31;;;22.39;71.49
14120;BME280;7138;49.246;9.100;2023-09-18T10:51:59;98306.47;;;22.42;71.77
14120;BME280;7138;49.246;9.100;2023-09-18T10:54:29;98305.59;;;22.50;72.29
14120;BME280;7138;49.246;9.100;2023-09-18T10:56:56;98297.84;;;22.56;71.53
14120;BME280;7138;49.246;9.100;2023-09-18T10:59:23;98308.34;;;22.59;71.60
14120;BME280;7138;49.246;9.100;2023-09-18T11:01:49;98312.06;;;22.63;70.81
14120;BME280;7138;49.246;9.100;2023-09-18T11:04:19;98325.84;;;22.68;70.64
14120;BME280;7138;49.246;9.100;2023-09-18T11:07:02;98320.78;;;22.62;70.19
14120;BME280;7138;49.246;9.100;2023-09-18T11:09:31;98314.25;;;22.58;70.21
14120;BME280;7138;49.246;9.100;2023-09-18T11:12:03;98316.56;;;22.56;70.34
14120;BME280;7138;49.246;9.100;2023-09-18T11:14:45;98324.78;;;22.52;69.97
14120;BME280;7138;49.246;9.100;2023-09-18T11:17:33;98327.63;;;22.43;69.97
14120;BME280;7138;49.246;9.100;2023-09-18T11:20:16;98326.34;;;22.41;70.10
14120;BME280;7138;49.246;9.100;2023-09-18T11:22:49;98331.44;;;22.39;70.28
14120;BME280;7138;49.246;9.100;2023-09-18T11:25:35;98325.91;;;22.30;70.71
14120;BME280;7138;49.246;9.100;2023-09-18T11:28:04;98329.50;;;22.31;70.75
14120;BME280;7138;49.246;9.100;2023-09-18T11:30:34;98331.47;;;22.30;70.45
14120;BME280;7138;49.246;9.100;2023-09-18T11:33:03;98336.06;;;22.35;70.36
14120;BME280;7138;49.246;9.100;2023-09-18T11:35:29;98337.84;;;22.39;70.40
14120;BME280;7138;49.246;9.100;2023-09-18T11:38:06;98326.06;;;22.34;70.50
14120;BME280;7138;49.246;9.100;2023-09-18T11:40:34;98326.19;;;22.37;69.69
14120;BME280;7138;49.246;9.100;2023-09-18T11:43:24;98338.75;;;22.22;70.17
14120;BME280;7138;49.246;9.100;2023-09-18T11:45:56;98330.69;;;22.21;69.86
14120;BME280;7138;49.246;9.100;2023-09-18T11:48:23;98331.94;;;22.32;70.06
14120;BME280;7138;49.246;9.100;2023-09-18T11:50:52;98331.78;;;22.37;69.65
14120;BME280;7138;49.246;9.100;2023-09-18T11:53:20;98336.16;;;22.47;69.00
14120;BME280;7138;49.246;9.100;2023-09-18T11:55:47;98333.16;;;22.52;68.46
14120;BME280;7138;49.246;9.100;2023-09-18T11:58:13;98328.25;;;22.49;68.59
14120;BME280;7138;49.246;9.100;2023-09-18T12:00:39;98332.50;;;22.55;68.82
14120;BME280;7138;49.246;9.100;2023-09-18T12:03:16;98332.69;;;22.50;68.03
14120;BME280;7138;49.246;9.100;2023-09-18T12:05:44;98337.41;;;22.58;68.09
14120;BME280;7138;49.246;9.100;2023-09-18T12:08:11;98339.31;;;22.66;67.98
14120;BME280;7138;49.246;9.100;2023-09-18T12:10:38;98339.44;;;22.70;68.08
14120;BME280;7138;49.246;9.100;2023-09-18T12:13:06;98340.56;;;22.77;67.47
14120;BME280;7138;49.246;9.100;2023-09-18T12:15:34;98341.03;;;22.79;67.59
14120;BME280;7138;49.246;9.100;2023-09-18T12:18:06;98336.25;;;22.80;67.27
14120;BME280;7138;49.246;9.100;2023-09-18T12:20:32;98342.03;;;22.75;65.92
14120;BME280;7138;49.246;9.100;2023-09-18T12:23:00;98344.16;;;22.78;66.45
14120;BME280;7138;49.246;9.100;2023-09-18T12:25:26;98339.25;;;22.75;66.33
14120;BME280;7138;49.246;9.100;2023-09-18T12:27:54;98346.31;;;22.72;66.01
14120;BME280;7138;49.246;9.100;2023-09-18T12:30:21;98346.78;;;22.74;66.68
14120;BME280;7138;49.246;9.100;2023-09-18T12:32:49;98341.38;;;22.78;66.30
14120;BME280;7138;49.246;9.100;2023-09-18T12:35:15;98335.09;;;22.81;66.20
14120;BME280;7138;49.246;9.100;2023-09-18T12:37:41;98334.44;;;22.84;66.19
14120;BME280;7138;49.246;9.100;2023-09-18T12:40:20;98333.94;;;22.82;65.40
14120;BME280;7138;49.246;9.100;2023-09-18T12:42:47;98337.41;;;22.88;65.71
14120;BME280;7138;49.246;9.100;2023-09-18T12:45:16;98335.81;;;22.99;65.65
14120;BME280;7138;49.246;9.100;2023-09-18T12:47:43;98339.69;;;23.06;65.85
14120;BME280;7138;49.246;9.100;2023-09-18T12:50:13;98331.00;;;23.08;65.09
14120;BME280;7138;49.246;9.100;2023-09-18T12:52:39;98329.59;;;23.14;64.92
14120;BME280;7138;49.246;9.100;2023-09-18T12:55:05;98326.47;;;23.16;64.50
14120;BME280;7138;49.246;9.100;2023-09-18T12:57:32;98321.69;;;23.16;63.51
14120;BME280;7138;49.246;9.100;2023-09-18T12:59:59;98321.69;;;23.16;64.17
14120;BME280;7138;49.246;9.100;2023-09-18T13:02:26;98310.19;;;23.18;63.53
14120;BME280;7138;49.246;9.100;2023-09-18T13:04:54;98307.88;;;23.20;63.90
14120;BME280;7138;49.246;9.100;2023-09-18T13:07:21;98306.84;;;23.24;63.62
14120;BME280;7138;49.246;9.100;2023-09-18T13:09:58;98306.75;;;23.33;64.21
14120;BME280;7138;49.246;9.100;2023-09-18T13:12:40;98303.53;;;23.43;63.25